| time (UTC) | temp F | wind direction | speed MPH | gust MPH | rain 1hr in | rain 24hr in | rain mn in | humidity % | barometer mb |
| 20260508000227 | 62 | 277 | 2.0 | 2.0 | 0.00 | 0.00 | 0.00 | 34 | 1013.2 |
| 20260507235238 | 61 | 256 | 1.0 | 1.0 | 0.00 | 0.00 | 0.00 | 32 | 1013.2 |
| 20260507234238 | 61 | 319 | 1.0 | 1.0 | 0.00 | 0.00 | 0.00 | 33 | 1013.2 |
| 20260507233259 | 61 | 333 | 1.0 | 1.0 | 0.00 | 0.00 | 0.00 | 36 | 1013.1 |
| 20260507232238 | 62 | 296 | 1.0 | 2.0 | 0.00 | 0.00 | 0.00 | 34 | 1013.2 |
| 20260507231259 | 62 | 327 | 1.0 | 1.0 | 0.00 | 0.00 | 0.00 | 32 | 1013.2 |
| 20260507230239 | 62 | 239 | 1.0 | 1.0 | 0.00 | 0.00 | 0.00 | 32 | 1013.3 |
| 20260507225244 | 62 | 231 | 1.0 | 2.0 | 0.00 | 0.00 | 0.00 | 32 | 1013.3 |
| 20260507224239 | 62 | 270 | 2.0 | 2.0 | 0.00 | 0.00 | 0.00 | 30 | 1013.3 |
| 20260507223239 | 63 | 11 | 2.0 | 2.0 | 0.00 | 0.00 | 0.00 | 32 | 1013.2 |
| 20260507222239 | 62 | 228 | 0.0 | 0.0 | 0.00 | 0.00 | 0.00 | 31 | 1013.5 |
| 20260507221240 | 62 | 352 | 2.0 | 2.0 | 0.00 | 0.00 | 0.00 | 32 | 1013.5 |
| 20260507220300 | 62 | 287 | 1.0 | 2.0 | 0.00 | 0.00 | 0.00 | 35 | 1013.7 |
| 20260507215240 | 62 | 224 | 1.0 | 2.0 | 0.00 | 0.00 | 0.00 | 32 | 1013.8 |
| 20260507214240 | 63 | 194 | 1.0 | 2.0 | 0.00 | 0.00 | 0.00 | 31 | 1013.8 |
| 20260507213240 | 63 | 309 | 2.0 | 3.0 | 0.00 | 0.00 | 0.00 | 32 | 1014.0 |
| 20260507212241 | 63 | 273 | 2.0 | 3.0 | 0.00 | 0.00 | 0.00 | 32 | 1014.1 |
| 20260507211220 | 63 | 243 | 5.0 | 7.0 | 0.00 | 0.00 | 0.00 | 34 | 1014.4 |
| 20260507210250 | 63 | 278 | 2.0 | 2.0 | 0.00 | 0.00 | 0.00 | 36 | 1014.5 |
| 20260507205250 | 64 | 271 | 2.0 | 3.0 | 0.00 | 0.00 | 0.00 | 33 | 1014.5 |
| 20260507204221 | 66 | 4 | 4.0 | 5.0 | 0.00 | 0.00 | 0.00 | 30 | 1014.6 |
| 20260507203301 | 66 | 355 | 3.0 | 6.0 | 0.00 | 0.00 | 0.00 | 34 | 1014.6 |
| 20260507202241 | 65 | 337 | 4.0 | 5.0 | 0.00 | 0.00 | 0.00 | 31 | 1014.6 |
| 20260507201249 | 65 | 349 | 4.0 | 6.0 | 0.00 | 0.00 | 0.00 | 32 | 1014.8 |
| 20260507200232 | 65 | 348 | 3.0 | 5.0 | 0.00 | 0.00 | 0.00 | 32 | 1014.9 |
| 20260507195313 | 64 | 13 | 3.0 | 5.0 | 0.00 | 0.00 | 0.00 | 32 | 1014.9 |
| 20260507194234 | 63 | 249 | 2.0 | 4.0 | 0.00 | 0.00 | 0.00 | 37 | 1015.1 |
| 20260507193234 | 63 | 275 | 2.0 | 4.0 | 0.00 | 0.00 | 0.00 | 36 | 1015.2 |
| 20260507192228 | 62 | 216 | 3.0 | 6.0 | 0.00 | 0.00 | 0.00 | 34 | 1015.2 |
| 20260507191218 | 62 | 281 | 5.0 | 8.0 | 0.00 | 0.00 | 0.00 | 38 | 1015.3 |
| 20260507190230 | 60 | 280 | 5.0 | 12.0 | 0.00 | 0.00 | 0.00 | 36 | 1015.3 |
| 20260507185242 | 60 | 337 | 3.0 | 5.0 | 0.00 | 0.00 | 0.00 | 37 | 1015.5 |
| 20260507184253 | 58 | 288 | 2.0 | 4.0 | 0.00 | 0.00 | 0.00 | 36 | 1015.7 |
| 20260507183235 | 57 | 281 | 4.0 | 6.0 | 0.00 | 0.00 | 0.00 | 38 | 1015.7 |
| 20260507182300 | 57 | 287 | 2.0 | 2.0 | 0.00 | 0.00 | 0.00 | 35 | 1015.8 |
| 20260507181228 | 57 | 242 | 2.0 | 3.0 | 0.00 | 0.00 | 0.00 | 38 | 1015.8 |
| 20260507180217 | 57 | 290 | 3.0 | 4.0 | 0.00 | 0.00 | 0.00 | 39 | 1016.0 |
| 20260507175218 | 56 | 261 | 2.0 | 3.0 | 0.00 | 0.00 | 0.00 | 42 | 1016.1 |
| 20260507174217 | 56 | 208 | 1.0 | 2.0 | 0.00 | 0.00 | 0.00 | 41 | 1016.1 |
| 20260507173218 | 55 | 76 | 1.0 | 1.0 | 0.00 | 0.00 | 0.00 | 43 | 1016.2 |
| 20260507172218 | 55 | 204 | 2.0 | 4.0 | 0.00 | 0.00 | 0.00 | 43 | 1016.2 |
| 20260507171218 | 55 | 169 | 3.0 | 4.0 | 0.00 | 0.00 | 0.00 | 41 | 1016.4 |
| 20260507170218 | 55 | 142 | 1.0 | 2.0 | 0.00 | 0.00 | 0.00 | 41 | 1016.3 |
| 20260507165219 | 55 | 165 | 2.0 | 4.0 | 0.00 | 0.00 | 0.00 | 40 | 1016.2 |
| 20260507164218 | 55 | 186 | 3.0 | 5.0 | 0.00 | 0.00 | 0.00 | 43 | 1016.0 |
| 20260507163219 | 55 | 188 | 5.0 | 7.0 | 0.00 | 0.00 | 0.00 | 43 | 1016.0 |
| 20260507162239 | 56 | 196 | 4.0 | 5.0 | 0.00 | 0.00 | 0.00 | 43 | 1016.0 |
| 20260507161219 | 56 | 222 | 4.0 | 7.0 | 0.00 | 0.00 | 0.00 | 41 | 1016.0 |
| 20260507160239 | 57 | 239 | 2.0 | 3.0 | 0.00 | 0.00 | 0.00 | 41 | 1016.2 |
| 20260507155219 | 57 | 169 | 1.0 | 2.0 | 0.00 | 0.00 | 0.00 | 40 | 1016.2 |
| 20260507154219 | 58 | 233 | 1.0 | 3.0 | 0.00 | 0.00 | 0.00 | 45 | 1016.2 |
| 20260507153225 | 58 | 303 | 2.0 | 3.0 | 0.00 | 0.00 | 0.00 | 43 | 1016.2 |
| 20260507152220 | 57 | 244 | 3.0 | 6.0 | 0.00 | 0.00 | 0.00 | 43 | 1016.0 |
| 20260507151240 | 56 | 277 | 5.0 | 7.0 | 0.00 | 0.00 | 0.00 | 43 | 1015.8 |
| 20260507150220 | 55 | 319 | 2.0 | 5.0 | 0.00 | 0.00 | 0.00 | 44 | 1015.8 |
| 20260507145220 | 54 | 260 | 3.0 | 5.0 | 0.00 | 0.00 | 0.00 | 43 | 1015.8 |
| 20260507144220 | 53 | 266 | 3.0 | 6.0 | 0.00 | 0.00 | 0.00 | 46 | 1015.9 |
| 20260507143220 | 53 | 207 | 4.0 | 7.0 | 0.00 | 0.00 | 0.00 | 45 | 1015.8 |
| 20260507142221 | 52 | 262 | 5.0 | 7.0 | 0.00 | 0.00 | 0.00 | 44 | 1015.9 |
| 20260507141237 | 51 | 274 | 5.0 | 8.0 | 0.00 | 0.00 | 0.00 | 47 | 1015.9 |
| 20260507140218 | 50 | 289 | 5.0 | 10.0 | 0.00 | 0.00 | 0.00 | 45 | 1015.8 |
| 20260507135221 | 49 | 284 | 6.0 | 10.0 | 0.00 | 0.00 | 0.00 | 48 | 1015.9 |
| 20260507134221 | 49 | 261 | 4.0 | 7.0 | 0.00 | 0.00 | 0.00 | 48 | 1016.0 |
| 20260507133218 | 48 | 245 | 5.0 | 8.0 | 0.00 | 0.00 | 0.00 | 47 | 1015.9 |
| 20260507132218 | 47 | 267 | 6.0 | 10.0 | 0.00 | 0.00 | 0.00 | 49 | 1016.0 |
| 20260507131219 | 47 | 267 | 8.0 | 14.0 | 0.00 | 0.00 | 0.00 | 49 | 1015.8 |
| 20260507130219 | 46 | 241 | 8.0 | 12.0 | 0.00 | 0.00 | 0.00 | 50 | 1015.7 |
| 20260507125216 | 46 | 249 | 7.0 | 10.0 | 0.00 | 0.00 | 0.00 | 49 | 1015.6 |
| 20260507124219 | 46 | 206 | 10.0 | 17.0 | 0.00 | 0.00 | 0.00 | 49 | 1015.6 |
| 20260507123219 | 46 | 220 | 7.0 | 12.0 | 0.00 | 0.00 | 0.00 | 47 | 1015.6 |
| 20260507122219 | 46 | 278 | 5.0 | 8.0 | 0.00 | 0.00 | 0.00 | 48 | 1015.6 |
| 20260507121216 | 46 | 276 | 8.0 | 14.0 | 0.00 | 0.00 | 0.00 | 48 | 1015.6 |
| 20260507120217 | 45 | 267 | 6.0 | 10.0 | 0.00 | 0.00 | 0.00 | 48 | 1015.7 |
| 20260507115220 | 45 | 234 | 7.0 | 11.0 | 0.00 | 0.00 | 0.00 | 49 | 1015.8 |
| 20260507114220 | 45 | 181 | 6.0 | 13.0 | 0.00 | 0.00 | 0.00 | 48 | 1015.8 |
| 20260507113217 | 45 | 229 | 7.0 | 10.0 | 0.00 | 0.00 | 0.00 | 49 | 1015.7 |
| 20260507112238 | 45 | 249 | 7.0 | 14.0 | 0.00 | 0.00 | 0.00 | 48 | 1015.7 |
| 20260507111218 | 46 | 279 | 6.0 | 12.0 | 0.00 | 0.00 | 0.00 | 46 | 1015.5 |
| 20260507110218 | 46 | 220 | 6.0 | 12.0 | 0.00 | 0.00 | 0.00 | 46 | 1015.5 |
| 20260507105238 | 46 | 249 | 7.0 | 13.0 | 0.00 | 0.00 | 0.00 | 46 | 1015.4 |
| 20260507104238 | 46 | 275 | 7.0 | 14.0 | 0.00 | 0.00 | 0.00 | 46 | 1015.6 |
| 20260507103218 | 45 | 272 | 6.0 | 8.0 | 0.00 | 0.00 | 0.00 | 47 | 1015.6 |
| 20260507102238 | 45 | 284 | 5.0 | 9.0 | 0.00 | 0.00 | 0.00 | 49 | 1015.7 |
| 20260507101216 | 45 | 264 | 4.0 | 11.0 | 0.00 | 0.00 | 0.00 | 48 | 1015.6 |
| 20260507100216 | 46 | 258 | 6.0 | 9.0 | 0.00 | 0.00 | 0.00 | 45 | 1015.6 |
| 20260507095219 | 45 | 254 | 6.0 | 9.0 | 0.00 | 0.00 | 0.00 | 47 | 1015.7 |
| 20260507094239 | 44 | 273 | 5.0 | 8.0 | 0.00 | 0.00 | 0.00 | 50 | 1015.8 |
| 20260507093219 | 44 | 228 | 4.0 | 7.0 | 0.00 | 0.00 | 0.00 | 50 | 1015.9 |
| 20260507092220 | 44 | 233 | 7.0 | 12.0 | 0.00 | 0.00 | 0.00 | 49 | 1015.8 |
| 20260507091217 | 45 | 204 | 6.0 | 11.0 | 0.00 | 0.00 | 0.00 | 47 | 1015.9 |
| 20260507090217 | 45 | 243 | 4.0 | 6.0 | 0.00 | 0.00 | 0.00 | 47 | 1015.9 |
| 20260507085217 | 45 | 247 | 8.0 | 16.0 | 0.00 | 0.00 | 0.00 | 44 | 1015.9 |
| 20260507084217 | 45 | 259 | 9.0 | 13.0 | 0.00 | 0.00 | 0.00 | 44 | 1015.7 |
| 20260507083217 | 45 | 241 | 7.0 | 14.0 | 0.00 | 0.00 | 0.00 | 44 | 1015.7 |
| 20260507082217 | 44 | 237 | 7.0 | 13.0 | 0.00 | 0.00 | 0.00 | 44 | 1015.7 |
| 20260507081221 | 44 | 226 | 6.0 | 10.0 | 0.00 | 0.00 | 0.00 | 46 | 1015.8 |
| 20260507080218 | 44 | 211 | 8.0 | 11.0 | 0.00 | 0.00 | 0.00 | 47 | 1015.9 |
| 20260507075218 | 43 | 255 | 8.0 | 17.0 | 0.00 | 0.00 | 0.00 | 46 | 1016.2 |
| 20260507074218 | 43 | 219 | 6.0 | 10.0 | 0.00 | 0.00 | 0.00 | 47 | 1016.3 |
| 20260507073218 | 43 | 280 | 6.0 | 11.0 | 0.00 | 0.00 | 0.00 | 45 | 1016.3 |
| 20260507072218 | 43 | 291 | 6.0 | 17.0 | 0.00 | 0.00 | 0.00 | 44 | 1016.3 |
| 20260507071239 | 43 | 236 | 8.0 | 16.0 | 0.00 | 0.00 | 0.00 | 45 | 1016.4 |
| 20260507070219 | 42 | 257 | 7.0 | 12.0 | 0.00 | 0.00 | 0.00 | 47 | 1016.6 |
| 20260507065219 | 43 | 130 | 3.0 | 5.0 | 0.00 | 0.00 | 0.00 | 45 | 1017.1 |
| 20260507064222 | 43 | 281 | 3.0 | 6.0 | 0.00 | 0.00 | 0.00 | 46 | 1017.2 |
| 20260507063216 | 43 | 144 | 4.0 | 7.0 | 0.00 | 0.00 | 0.00 | 44 | 1017.0 |
| 20260507062237 | 42 | 183 | 7.0 | 11.0 | 0.00 | 0.00 | 0.00 | 45 | 1017.0 |
| 20260507061220 | 41 | 119 | 4.0 | 8.0 | 0.00 | 0.00 | 0.00 | 45 | 1017.1 |
| 20260507060223 | 40 | 136 | 5.0 | 5.0 | 0.00 | 0.00 | 0.00 | 52 | 1017.2 |
| 20260507055233 | 40 | 160 | 5.0 | 6.0 | 0.00 | 0.00 | 0.00 | 51 | 1017.1 |
| 20260507054228 | 39 | 281 | 2.0 | 3.0 | 0.00 | 0.00 | 0.00 | 50 | 1017.2 |
| 20260507053227 | 38 | 119 | 4.0 | 5.0 | 0.00 | 0.00 | 0.00 | 56 | 1017.3 |
| 20260507052217 | 39 | 195 | 2.0 | 2.0 | 0.00 | 0.00 | 0.00 | 54 | 1017.2 |
| 20260507051240 | 36 | 87 | 2.0 | 3.0 | 0.00 | 0.00 | 0.00 | 64 | 1017.4 |
| 20260507050248 | 37 | 335 | 1.0 | 2.0 | 0.00 | 0.00 | 0.00 | 64 | 1017.4 |
| 20260507045228 | 37 | 48 | 4.0 | 6.0 | 0.00 | 0.00 | 0.00 | 59 | 1017.2 |
| 20260507044218 | 35 | 110 | 4.0 | 5.0 | 0.00 | 0.00 | 0.00 | 65 | 1017.2 |
| 20260507043230 | 34 | 135 | 4.0 | 5.0 | 0.00 | 0.00 | 0.00 | 77 | 1017.5 |
| 20260507042230 | 34 | 169 | 2.0 | 3.0 | 0.00 | 0.00 | 0.00 | 78 | 1017.5 |
| 20260507041230 | 34 | 138 | 1.0 | 2.0 | 0.00 | 0.00 | 0.00 | 79 | 1017.5 |
| 20260507040230 | 33 | 74 | 2.0 | 2.0 | 0.00 | 0.00 | 0.00 | 82 | 1017.5 |
| 20260507035231 | 33 | 64 | 1.0 | 2.0 | 0.00 | 0.00 | 0.00 | 86 | 1017.9 |
| 20260507034251 | 33 | 134 | 2.0 | 2.0 | 0.00 | 0.00 | 0.00 | 85 | 1017.9 |
| 20260507033231 | 34 | 168 | 1.0 | 1.0 | 0.00 | 0.00 | 0.00 | 86 | 1017.8 |
| 20260507032231 | 33 | 134 | 1.0 | 2.0 | 0.00 | 0.00 | 0.00 | 86 | 1017.7 |
| 20260507031231 | 33 | 167 | 2.0 | 4.0 | 0.00 | 0.00 | 0.00 | 86 | 1017.6 |
| 20260507030219 | 33 | 277 | 1.0 | 2.0 | 0.00 | 0.00 | 0.00 | 86 | 1017.6 |
| 20260507025217 | 33 | 146 | 2.0 | 3.0 | 0.00 | 0.00 | 0.00 | 86 | 1017.6 |
| 20260507024230 | 33 | 177 | 5.0 | 6.0 | 0.00 | 0.00 | 0.00 | 86 | 1017.5 |
| 20260507023231 | 33 | 171 | 5.0 | 6.0 | 0.00 | 0.00 | 0.00 | 86 | 1017.3 |
| 20260507022230 | 33 | 180 | 4.0 | 5.0 | 0.00 | 0.00 | 0.00 | 86 | 1017.3 |
| 20260507021232 | 33 | 163 | 4.0 | 4.0 | 0.00 | 0.00 | 0.00 | 86 | 1017.3 |
| 20260507020220 | 33 | 162 | 4.0 | 5.0 | 0.00 | 0.00 | 0.00 | 86 | 1017.2 |
| 20260507015220 | 33 | 168 | 5.0 | 6.0 | 0.00 | 0.00 | 0.00 | 85 | 1017.1 |
| 20260507014220 | 34 | 155 | 5.0 | 8.0 | 0.00 | 0.00 | 0.00 | 85 | 1017.2 |
| 20260507013221 | 34 | 160 | 5.0 | 7.0 | 0.00 | 0.00 | 0.00 | 83 | 1017.3 |
| 20260507012221 | 35 | 164 | 6.0 | 8.0 | 0.00 | 0.00 | 0.00 | 81 | 1017.4 |
| 20260507011221 | 35 | 157 | 5.0 | 6.0 | 0.00 | 0.00 | 0.00 | 81 | 1017.5 |
| 20260507010342 | 35 | 157 | 6.0 | 7.0 | 0.00 | 0.00 | 0.00 | 80 | 1017.6 |
| 20260507005222 | 36 | 161 | 5.0 | 6.0 | 0.00 | 0.00 | 0.00 | 80 | 1017.6 |
| 20260507004222 | 36 | 175 | 5.0 | 7.0 | 0.00 | 0.00 | 0.00 | 80 | 1017.7 |
| 20260507003223 | 36 | 169 | 5.0 | 8.0 | 0.00 | 0.00 | 0.00 | 79 | 1017.7 |
| 20260507002222 | 36 | 172 | 5.0 | 6.0 | 0.00 | 0.00 | 0.00 | 78 | 1017.8 |
| 20260507001216 | 36 | 158 | 4.0 | 6.0 | 0.00 | 0.00 | 0.00 | 78 | 1017.8 |